Main page
METAR-TAF:

METAR-TAF

Airports :

Ireland West Airport Knock

Knock, Ireland

latitude: 53-54-37N, longitude: 008-49-05W, elevation: 203 m

Current weather observation

The report was made 12 hours and 25 minutes ago, at 15:00 UTC
Wind 7 kt from the North, varying between North/Northwest and Northeast
Temperature 13°C
Humidity 58%
Pressure 1018 hPa
Visibility 10 km or more
Few clouds at a height of 3200 ft
Broken clouds at a height of 4400 ft

METAR: EIKN 181500Z 01007KT 330V050 9999 FEW032 BKN044 13/05 Q1018 NOSIG

Time: 04:25 (03:25 UTC)

Forecast

The report was made 16 hours and 25 minutes ago, at 11:00 UTC
Forecast valid from 18 at 12 UTC to 19 at 12 UTC
Wind 5 kt from the North/Northwest
Visibility 10 km or more
Few clouds at a height of 3000 ft
Scattered clouds at a height of 4000 ft
Becoming
from 19 at 04 UTC to 19 at 06 UTC
Wind 10 kt from the East/Southeast

TAF: EIKN 181100Z 1812/1912 34005KT 9999 FEW030 SCT040 BECMG 1904/1906 12010KT

Weather observations and forecasts of more than 4000 airports (METAR and TAF reports).

The available stations are represented by yellow and red dots on the map.

Hover mouse over dot to see the name of the station.

Then click to see weather observations and forecasts.

To change the map : click on the green buttons with a black cross to zoom in, on the green button with a dash to zoom out, or on the green arrows for adjacent maps.


METAR-TAF: